Time;durP1;ratioP1;P1;durP2;ratioP2;P2;SDS_P1;SDS_P2;PMS_P1;PMS_P2;Temp;Humidity;BMP_temperature;BMP_pressure;BME280_temperature;BME280_humidity;BME280_pressure;Samples;Min_cycle;Max_cycle;Signal;HPM_P1;HPM_P2
2023/04/15 00:00:17;;;;;;;6.88;4.80;;;;;;;6.23;100.00;99959.94;6126781;28;20106;-90
2023/04/15 00:03:20;;;;;;;8.98;5.40;;;;;;;6.20;100.00;99955.84;6102294;28;20094;-90
2023/04/15 00:06:22;;;;;;;8.80;5.25;;;;;;;6.28;100.00;99950.16;6109918;28;20184;-90
2023/04/15 00:09:24;;;;;;;7.18;5.00;;;;;;;6.23;100.00;99950.47;6127198;28;20114;-91
2023/04/15 00:12:26;;;;;;;7.45;4.75;;;;;;;6.12;100.00;99957.31;6123439;28;20035;-91
2023/04/15 00:15:28;;;;;;;6.65;5.07;;;;;;;6.11;100.00;99959.06;6127747;28;20528;-91
2023/04/15 00:18:30;;;;;;;6.10;5.05;;;;;;;6.15;100.00;99957.09;6119655;28;20048;-90
2023/04/15 00:21:32;;;;;;;7.57;4.88;;;;;;;6.17;100.00;99944.97;6141506;28;20498;-90
2023/04/15 00:24:34;;;;;;;10.52;5.70;;;;;;;6.18;100.00;99949.16;6130871;28;20142;-90
2023/04/15 00:27:37;;;;;;;7.03;5.35;;;;;;;6.19;100.00;99933.66;6126581;28;20487;-90
2023/04/15 00:30:39;;;;;;;7.22;4.80;;;;;;;6.06;100.00;99939.75;6098899;28;20051;-90
2023/04/15 00:33:41;;;;;;;7.90;5.25;;;;;;;5.94;100.00;99937.13;6097343;28;20517;-90
2023/04/15 00:36:43;;;;;;;6.13;4.55;;;;;;;5.86;100.00;99934.19;6106801;28;20058;-90
2023/04/15 00:39:45;;;;;;;7.07;5.22;;;;;;;5.81;100.00;99937.13;6098449;28;20263;-91
2023/04/15 00:42:47;;;;;;;6.93;4.57;;;;;;;5.83;100.00;99931.84;6098921;28;20043;-90
2023/04/15 00:45:52;;;;;;;6.88;4.53;;;;;;;5.92;100.00;99932.97;6098222;28;20036;-90
2023/04/15 00:48:54;;;;;;;10.15;5.13;;;;;;;5.91;100.00;99932.13;6121533;28;20070;-90
2023/04/15 00:51:56;;;;;;;5.82;4.65;;;;;;;5.84;100.00;99923.25;6118957;28;20554;-91
2023/04/15 00:54:58;;;;;;;6.45;4.53;;;;;;;5.83;100.00;99927.53;6137174;28;20420;-90
2023/04/15 00:58:00;;;;;;;8.15;4.78;;;;;;;5.86;100.00;99933.38;6119311;28;20047;-90
2023/04/15 01:01:03;;;;;;;7.43;4.93;;;;;;;5.84;100.00;99920.69;6098567;28;20379;-90
2023/04/15 01:04:05;;;;;;;5.97;4.40;;;;;;;5.86;100.00;99923.94;6126172;28;20048;-90
2023/04/15 01:07:08;;;;;;;6.88;4.82;;;;;;;5.81;100.00;99920.84;6094599;28;20142;-90
2023/04/15 01:10:10;;;;;;;6.93;5.10;;;;;;;5.85;100.00;99917.16;6118935;28;20047;-90
2023/04/15 01:13:11;;;;;;;6.95;5.00;;;;;;;5.86;100.00;99934.19;6108886;28;20502;-90
2023/04/15 01:16:13;;;;;;;8.27;5.28;;;;;;;5.84;100.00;99928.38;6098848;28;20047;-90
2023/04/15 01:19:16;;;;;;;6.53;5.15;;;;;;;5.86;100.00;99929.06;6110070;28;20498;-89
2023/04/15 01:22:18;;;;;;;7.78;5.03;;;;;;;5.87;100.00;99922.22;6106561;28;20055;-89
2023/04/15 01:25:33;;;;;;;8.88;4.90;;;;;;;5.92;100.00;99922.72;6117517;28;20460;-90
2023/04/15 01:28:36;;;;;;;7.85;4.80;;;;;;;5.92;100.00;99920.13;6119766;28;20610;-90
2023/04/15 01:31:38;;;;;;;7.13;4.82;;;;;;;5.86;100.00;99915.41;6092293;28;20075;-90
2023/04/15 01:34:41;;;;;;;8.18;5.53;;;;;;;5.86;100.00;99907.72;6113032;28;20134;-90
2023/04/15 01:37:42;;;;;;;6.05;4.35;;;;;;;5.86;100.00;99916.22;6097213;28;20465;-89
2023/04/15 01:40:44;;;;;;;7.50;5.35;;;;;;;5.87;100.00;99912.75;6119759;28;20044;-90
2023/04/15 01:43:47;;;;;;;8.23;5.75;;;;;;;5.83;100.00;99914.69;6117962;28;20613;-89
2023/04/15 01:46:49;;;;;;;8.60;5.93;;;;;;;5.81;100.00;99906.28;6105138;28;20064;-89
2023/04/15 01:49:51;;;;;;;9.60;5.80;;;;;;;5.78;100.00;99908.25;6125113;28;20723;-89
2023/04/15 01:52:53;;;;;;;8.38;5.80;;;;;;;5.79;100.00;99910.72;6119315;28;20039;-89
2023/04/15 01:55:55;;;;;;;9.80;6.18;;;;;;;5.82;100.00;99904.53;6127625;28;20035;-89
2023/04/15 01:58:56;;;;;;;10.77;6.85;;;;;;;5.82;100.00;99902.78;6129575;28;20189;-89
2023/04/15 02:01:59;;;;;;;10.32;6.25;;;;;;;5.80;100.00;99902.06;6116400;28;20055;-89
2023/04/15 02:05:01;;;;;;;10.38;6.47;;;;;;;5.88;100.00;99905.84;6117844;28;20043;-89
2023/04/15 02:08:02;;;;;;;10.45;6.85;;;;;;;5.94;100.00;99910.63;6121721;28;20087;-89
2023/04/15 02:11:04;;;;;;;13.80;7.50;;;;;;;5.99;100.00;99901.66;6125860;28;20079;-89
2023/04/15 02:14:06;;;;;;;10.90;7.03;;;;;;;6.04;100.00;99901.34;6098219;28;20520;-90
2023/04/15 02:17:08;;;;;;;12.93;7.53;;;;;;;6.04;100.00;99894.44;6101210;28;20047;-90
2023/04/15 02:20:10;;;;;;;12.70;7.45;;;;;;;6.07;100.00;99898.53;6125448;28;20070;-89
2023/04/15 02:23:12;;;;;;;12.85;7.78;;;;;;;6.09;100.00;99896.69;6116827;29;20501;-89
2023/04/15 02:26:17;;;;;;;12.93;7.55;;;;;;;6.11;100.00;99887.13;6123934;28;20043;-89
2023/04/15 02:29:19;;;;;;;12.40;7.90;;;;;;;6.16;100.00;99887.63;6125681;28;20043;-90
2023/04/15 02:32:23;;;;;;;13.57;8.07;;;;;;;6.18;100.00;99882.38;6120896;28;20050;-90
2023/04/15 02:35:25;;;;;;;11.02;7.88;;;;;;;6.21;100.00;99877.00;6129422;28;20044;-89
2023/04/15 02:38:29;;;;;;;12.10;8.15;;;;;;;6.28;100.00;99873.06;6101542;28;20102;-89
2023/04/15 02:41:31;;;;;;;12.07;8.43;;;;;;;6.18;100.00;99887.50;6100815;28;20473;-89
2023/04/15 02:44:35;;;;;;;15.23;8.35;;;;;;;6.15;100.00;99888.53;6100150;28;20067;-89
2023/04/15 02:47:45;;;;;;;12.07;8.07;;;;;;;6.14;100.00;99894.63;6093878;28;20853;-89
2023/04/15 02:50:47;;;;;;;12.13;7.82;;;;;;;6.13;100.00;99892.97;6110545;28;20064;-89
2023/04/15 02:53:50;;;;;;;12.25;8.18;;;;;;;6.11;100.00;99892.28;6109417;28;20758;-90
2023/04/15 02:56:54;;;;;;;15.18;8.25;;;;;;;6.13;100.00;99892.16;6124486;28;20082;-89
2023/04/15 02:59:56;;;;;;;13.52;8.30;;;;;;;6.13;100.00;99897.28;6096116;29;20048;-89
2023/04/15 03:03:03;;;;;;;13.45;9.13;;;;;;;6.07;100.00;99897.72;6111747;28;20062;-90
2023/04/15 03:06:05;;;;;;;13.75;8.88;;;;;;;6.10;100.00;99905.22;6090803;28;20572;-89
2023/04/15 03:09:08;;;;;;;13.80;8.13;;;;;;;6.09;100.00;99901.84;6107756;28;20089;-90
2023/04/15 03:12:11;;;;;;;12.98;8.30;;;;;;;6.09;100.00;99899.25;6104798;28;20051;-90
2023/04/15 03:15:13;;;;;;;12.95;8.57;;;;;;;6.02;100.00;99905.75;6117864;28;20051;-89
2023/04/15 03:18:18;;;;;;;14.60;9.10;;;;;;;6.11;100.00;99906.84;6101330;28;20223;-89
2023/04/15 03:21:20;;;;;;;13.10;7.85;;;;;;;6.10;100.00;99906.03;6119137;28;20125;-89
2023/04/15 03:24:23;;;;;;;13.73;8.80;;;;;;;6.08;100.00;99901.94;6098580;29;20052;-89
2023/04/15 03:27:26;;;;;;;14.68;8.43;;;;;;;6.20;100.00;99899.31;6104621;28;20050;-89
2023/04/15 03:30:32;;;;;;;15.80;8.95;;;;;;;6.13;100.00;99900.66;6102763;28;20199;-89
2023/04/15 03:33:34;;;;;;;15.00;9.10;;;;;;;6.15;100.00;99898.81;6124078;28;20044;-89
2023/04/15 03:36:36;;;;;;;18.85;9.88;;;;;;;6.18;100.00;99888.31;6104197;28;20043;-89
2023/04/15 03:39:38;;;;;;;16.05;9.52;;;;;;;6.16;100.00;99892.78;6129708;28;20050;-89
2023/04/15 03:42:40;;;;;;;16.67;10.02;;;;;;;6.17;100.00;99891.81;6116560;28;20802;-89
2023/04/15 03:45:42;;;;;;;17.98;10.30;;;;;;;6.11;100.00;99892.28;6118382;28;20046;-89
2023/04/15 03:48:44;;;;;;;18.17;10.57;;;;;;;6.05;100.00;99897.81;6122302;28;20219;-89
2023/04/15 03:51:45;;;;;;;18.65;9.82;;;;;;;6.03;100.00;99891.97;6120748;28;20055;-89
2023/04/15 03:54:47;;;;;;;19.30;10.38;;;;;;;6.11;100.00;99901.72;6123145;28;20399;-89
2023/04/15 03:57:49;;;;;;;15.52;9.70;;;;;;;6.20;100.00;99895.94;6102725;28;20054;-89
2023/04/15 04:00:51;;;;;;;21.70;11.15;;;;;;;6.11;100.00;99902.56;6116390;28;20044;-89
2023/04/15 04:03:53;;;;;;;19.90;11.13;;;;;;;6.11;100.00;99904.28;6121631;28;20082;-89
2023/04/15 04:06:55;;;;;;;18.20;10.90;;;;;;;6.02;100.00;99896.28;6111367;28;20036;-89
2023/04/15 04:09:57;;;;;;;18.48;11.90;;;;;;;6.02;100.00;99900.63;6122226;28;20040;-89
2023/04/15 04:12:58;;;;;;;19.58;10.20;;;;;;;6.05;100.00;99902.97;6124310;28;20371;-89
2023/04/15 04:16:00;;;;;;;20.35;11.00;;;;;;;6.04;100.00;99901.34;6119355;28;20416;-88
2023/04/15 04:19:02;;;;;;;19.98;10.90;;;;;;;5.96;100.00;99901.88;6105766;28;20039;-88
2023/04/15 04:22:05;;;;;;;21.63;11.98;;;;;;;5.89;100.00;99907.50;6123866;28;20046;-90
2023/04/15 04:25:09;;;;;;;20.30;11.77;;;;;;;5.81;100.00;99906.28;6111392;28;20058;-91
2023/04/15 04:28:10;;;;;;;24.60;12.05;;;;;;;5.79;100.00;99913.28;6132943;28;20577;-92
2023/04/15 04:31:13;;;;;;;21.05;12.38;;;;;;;5.79;100.00;99908.16;6121666;28;20143;-93
2023/04/15 04:34:15;;;;;;;22.40;12.25;;;;;;;5.75;100.00;99911.84;6097874;28;20541;-94
2023/04/15 04:37:17;;;;;;;23.13;11.80;;;;;;;5.83;100.00;99914.69;6115971;28;20046;-94
2023/04/15 04:40:18;;;;;;;24.05;11.65;;;;;;;5.82;100.00;99917.38;6130313;28;20829;-94
2023/04/15 04:43:21;;;;;;;21.67;11.80;;;;;;;5.71;100.00;99914.72;6124748;28;20598;-93
2023/04/15 04:46:23;;;;;;;24.00;12.68;;;;;;;5.75;100.00;99919.53;6105175;28;20122;-93
2023/04/15 04:49:24;;;;;;;21.45;11.90;;;;;;;5.77;100.00;99915.13;6108802;28;20179;-93
2023/04/15 04:52:27;;;;;;;23.50;12.02;;;;;;;5.69;100.00;99926.84;6119831;28;20039;-93
2023/04/15 04:55:29;;;;;;;22.80;12.23;;;;;;;5.72;100.00;99921.50;6106771;28;20391;-94
2023/04/15 04:58:31;;;;;;;22.80;11.98;;;;;;;5.67;100.00;99908.16;6120428;29;20043;-95
2023/04/15 05:01:33;;;;;;;26.20;12.95;;;;;;;5.62;100.00;99921.31;6117665;28;20052;-93
2023/04/15 05:04:35;;;;;;;20.48;11.50;;;;;;;5.64;100.00;99919.47;6103667;28;20510;-94
2023/04/15 05:07:38;;;;;;;23.65;12.55;;;;;;;5.69;100.00;99914.00;6115429;28;20052;-93
2023/04/15 05:10:40;;;;;;;21.40;12.05;;;;;;;5.61;100.00;99912.81;6098904;28;20047;-93
2023/04/15 05:13:41;;;;;;;23.02;12.40;;;;;;;5.65;100.00;99915.97;6125225;28;20048;-91
2023/04/15 05:16:43;;;;;;;23.63;13.15;;;;;;;5.61;100.00;99920.50;6114525;28;20740;-91
2023/04/15 05:19:45;;;;;;;23.90;13.00;;;;;;;5.75;100.00;99927.25;6096683;29;20052;-91
2023/04/15 05:22:47;;;;;;;22.60;12.48;;;;;;;5.79;100.00;99928.69;6127324;28;20054;-92
2023/04/15 05:25:49;;;;;;;23.02;12.20;;;;;;;5.74;100.00;99925.63;6087262;28;20047;-92
2023/04/15 05:28:50;;;;;;;23.17;12.52;;;;;;;5.84;100.00;99923.25;6117880;28;20046;-91
2023/04/15 05:31:52;;;;;;;24.95;12.25;;;;;;;5.85;100.00;99934.31;6113662;28;20055;-91
2023/04/15 05:34:54;;;;;;;22.83;12.27;;;;;;;5.82;100.00;99923.34;6097412;28;20054;-91
2023/04/15 05:37:56;;;;;;;23.27;11.68;;;;;;;5.83;100.00;99929.28;6113884;28;20510;-91
2023/04/15 05:40:58;;;;;;;22.10;11.82;;;;;;;5.86;100.00;99933.38;6125452;28;20043;-90
2023/04/15 05:44:00;;;;;;;23.27;11.50;;;;;;;5.83;100.00;99934.41;6109647;29;20150;-90
2023/04/15 05:47:02;;;;;;;21.92;11.60;;;;;;;5.83;100.00;99934.41;6125342;28;20142;-90
2023/04/15 05:50:05;;;;;;;21.20;11.63;;;;;;;5.87;100.00;99933.28;6106957;29;20379;-91
2023/04/15 05:53:07;;;;;;;22.83;10.90;;;;;;;5.87;100.00;99932.47;6101137;28;20106;-90
2023/04/15 05:56:09;;;;;;;19.52;10.40;;;;;;;5.86;100.00;99930.81;6096349;28;20047;-90
2023/04/15 05:59:11;;;;;;;20.52;11.18;;;;;;;5.86;100.00;99930.81;6108981;28;20451;-90
2023/04/15 06:02:13;;;;;;;21.95;11.18;;;;;;;5.84;100.00;99923.25;6101264;28;20077;-89
2023/04/15 06:05:15;;;;;;;17.67;10.07;;;;;;;5.97;100.00;99936.91;6118666;28;20054;-89
2023/04/15 06:08:18;;;;;;;17.50;9.25;;;;;;;5.98;100.00;99940.28;6093680;28;20178;-90
2023/04/15 06:11:20;;;;;;;18.35;9.48;;;;;;;5.91;100.00;99927.00;6121214;28;20054;-90
2023/04/15 06:14:22;;;;;;;18.50;10.25;;;;;;;6.01;100.00;99933.19;6119690;28;20549;-91
2023/04/15 06:17:24;;;;;;;16.67;9.15;;;;;;;5.95;100.00;99936.19;6114295;28;20542;-92
2023/04/15 06:20:26;;;;;;;16.70;9.07;;;;;;;5.91;100.00;99928.75;6114967;28;20047;-91
2023/04/15 06:23:28;;;;;;;15.73;9.10;;;;;;;5.98;100.00;99930.00;6110825;28;20105;-91
2023/04/15 06:26:30;;;;;;;13.73;8.80;;;;;;;5.99;100.00;99936.81;6127463;28;20082;-91
2023/04/15 06:29:32;;;;;;;14.80;8.40;;;;;;;6.02;100.00;99932.25;6119150;29;20043;-90
2023/04/15 06:32:34;;;;;;;15.40;8.23;;;;;;;5.98;100.00;99932.56;6138589;28;20171;-90
2023/04/15 06:35:35;;;;;;;15.50;9.45;;;;;;;6.07;100.00;99936.28;6135060;28;20059;-91
2023/04/15 06:38:37;;;;;;;14.43;8.15;;;;;;;6.01;100.00;99940.06;6128994;28;20043;-90
2023/04/15 06:41:39;;;;;;;12.93;7.65;;;;;;;5.97;100.00;99936.91;6115465;28;20055;-90
2023/04/15 06:44:41;;;;;;;13.88;7.15;;;;;;;6.02;100.00;99929.69;6117174;28;20857;-90
2023/04/15 06:47:43;;;;;;;13.20;7.75;;;;;;;6.07;100.00;99931.94;6124586;28;20039;-89
2023/04/15 06:50:45;;;;;;;14.60;8.52;;;;;;;6.07;100.00;99931.94;6115167;28;20501;-90
2023/04/15 06:53:46;;;;;;;12.68;7.40;;;;;;;6.06;100.00;99932.84;6103697;29;20510;-90
2023/04/15 06:56:50;;;;;;;12.88;7.13;;;;;;;6.09;100.00;99937.81;6100908;29;20050;-90
2023/04/15 06:59:54;;;;;;;14.38;6.82;;;;;;;6.06;100.00;99943.13;6126458;28;20561;-89
2023/04/15 07:02:56;;;;;;;11.43;6.93;;;;;;;6.13;100.00;99939.22;6126527;28;20054;-90
2023/04/15 07:05:57;;;;;;;12.40;6.75;;;;;;;6.09;100.00;99950.66;6102731;28;20047;-89
2023/04/15 07:09:00;;;;;;;12.45;6.68;;;;;;;6.18;100.00;99947.41;6125645;28;20094;-89
2023/04/15 07:12:03;;;;;;;10.50;5.72;;;;;;;6.13;100.00;99940.97;6110607;28;20040;-89
2023/04/15 07:15:05;;;;;;;12.75;6.63;;;;;;;6.15;100.00;99932.22;6126226;28;20315;-90
2023/04/15 07:18:08;;;;;;;8.95;5.38;;;;;;;6.13;100.00;99925.53;6134507;28;20359;-91
2023/04/15 07:21:10;;;;;;;9.43;5.32;;;;;;;6.18;100.00;99931.19;6135161;28;20054;-91
2023/04/15 07:24:16;;;;;;;9.70;5.90;;;;;;;6.25;100.00;99940.91;6110208;29;20536;-90
2023/04/15 07:27:18;;;;;;;9.63;5.43;;;;;;;6.16;100.00;99951.03;6130758;28;20056;-91
2023/04/15 07:30:20;;;;;;;7.07;4.82;;;;;;;6.10;100.00;99954.03;6131006;28;20573;-90
2023/04/15 07:33:22;;;;;;;7.35;4.72;;;;;;;6.16;100.00;99962.16;6124459;28;20055;-90
2023/04/15 07:36:24;;;;;;;7.03;4.57;;;;;;;6.19;100.00;99977.34;6128041;28;20070;-90
2023/04/15 07:39:26;;;;;;;6.28;4.15;;;;;;;6.23;100.00;99963.34;6107765;28;20058;-90
2023/04/15 07:42:28;;;;;;;8.82;4.47;;;;;;;6.26;100.00;99967.47;6127492;28;20158;-89
2023/04/15 07:45:31;;;;;;;6.82;4.55;;;;;;;6.27;100.00;99968.28;6130635;28;20549;-90
2023/04/15 07:48:32;;;;;;;6.88;4.60;;;;;;;6.25;100.00;99969.19;6152362;28;20076;-89
2023/04/15 07:51:37;;;;;;;9.00;3.92;;;;;;;6.32;100.00;99976.50;6131036;28;20050;-89
2023/04/15 07:54:39;;;;;;;9.13;4.47;;;;;;;6.36;100.00;99973.59;6124203;28;20074;-90
2023/04/15 07:57:40;;;;;;;6.60;4.22;;;;;;;6.40;100.00;99969.88;6122499;28;20085;-90
2023/04/15 08:00:43;;;;;;;5.82;3.60;;;;;;;6.47;100.00;99978.78;6127964;28;20044;-90
2023/04/15 08:03:45;;;;;;;6.30;4.20;;;;;;;6.55;100.00;99978.25;6122296;28;20047;-89
2023/04/15 08:06:49;;;;;;;6.72;4.53;;;;;;;6.56;100.00;99979.91;6103261;28;20194;-89
2023/04/15 08:09:51;;;;;;;7.10;4.38;;;;;;;6.54;100.00;99984.34;6122682;28;20498;-89
2023/04/15 08:12:56;;;;;;;7.80;4.50;;;;;;;6.57;100.00;99986.69;6124046;28;20040;-89
2023/04/15 08:16:18;;;;;;;5.55;3.65;;;;;;;6.55;100.00;99995.44;6128772;28;20042;-89
2023/04/15 08:19:20;;;;;;;6.38;3.88;;;;;;;6.53;100.00;99989.56;6107924;28;20050;-89
2023/04/15 08:22:22;;;;;;;7.68;4.20;;;;;;;6.57;100.00;99996.97;6122550;28;20438;-89
2023/04/15 08:25:25;;;;;;;6.00;3.75;;;;;;;6.57;100.00;99991.81;6123796;28;20563;-90
2023/04/15 08:28:27;;;;;;;6.25;4.13;;;;;;;6.67;100.00;99992.00;6125276;28;20126;-90
2023/04/15 08:31:31;;;;;;;6.63;4.25;;;;;;;6.68;100.00;99997.03;6122239;28;20043;-91
2023/04/15 08:34:33;;;;;;;6.68;3.95;;;;;;;6.73;100.00;99993.28;6115809;28;20414;-90
2023/04/15 08:37:35;;;;;;;8.23;4.15;;;;;;;6.72;100.00;99997.63;6119156;28;20051;-91
2023/04/15 08:40:45;;;;;;;5.43;3.63;;;;;;;6.70;100.00;99989.19;6106769;29;20098;-92
2023/04/15 08:44:00;;;;;;;7.68;4.57;;;;;;;6.66;100.00;99988.59;6127958;28;20138;-91
2023/04/15 08:47:06;;;;;;;6.22;4.13;;;;;;;6.71;100.00;99997.72;6109597;29;20406;-91
2023/04/15 08:50:09;;;;;;;6.68;3.67;;;;;;;6.67;100.00;99997.94;6125328;28;20051;-90
2023/04/15 08:53:12;;;;;;;4.43;3.30;;;;;;;6.66;100.00;99990.34;6116522;28;20050;-90
2023/04/15 08:56:19;;;;;;;6.25;3.97;;;;;;;6.73;100.00;99991.53;6128003;28;20047;-90
2023/04/15 08:59:21;;;;;;;4.22;3.47;;;;;;;6.70;100.00;99994.34;6122871;28;20043;-89
2023/04/15 09:02:25;;;;;;;5.07;3.70;;;;;;;6.77;100.00;99997.31;6128820;28;20055;-89
2023/04/15 09:05:31;;;;;;;5.78;4.20;;;;;;;6.76;100.00;99993.91;6108454;28;20051;-89
2023/04/15 09:08:34;;;;;;;6.32;3.67;;;;;;;6.73;100.00;100004.41;6107176;28;20054;-90
2023/04/15 09:11:36;;;;;;;6.20;3.53;;;;;;;6.74;100.00;100003.50;6122625;28;20047;-89
2023/04/15 09:14:46;;;;;;;4.10;3.00;;;;;;;6.78;100.00;100004.91;6105853;28;20430;-89
2023/04/15 09:17:47;;;;;;;5.15;3.50;;;;;;;6.94;100.00;100008.97;6099396;28;20047;-89
2023/04/15 09:20:52;;;;;;;5.70;3.25;;;;;;;6.88;100.00;100012.78;6121328;28;20039;-89
2023/04/15 09:23:56;;;;;;;4.90;3.40;;;;;;;6.91;100.00;100007.44;6118359;28;20047;-89
2023/04/15 09:26:59;;;;;;;4.72;3.25;;;;;;;6.90;100.00;100010.91;6106967;28;20059;-89
2023/04/15 09:30:01;;;;;;;6.13;3.35;;;;;;;6.92;100.00;100014.19;6129885;28;20051;-89
2023/04/15 09:33:10;;;;;;;5.60;3.25;;;;;;;6.88;100.00;100023.06;6120620;28;20040;-90
2023/04/15 09:36:14;;;;;;;4.00;2.70;;;;;;;6.92;100.00;100027.06;6121290;28;20399;-88
2023/04/15 09:39:16;;;;;;;4.75;3.42;;;;;;;6.94;100.00;100032.13;6104847;29;20036;-91
2023/04/15 09:42:27;;;;;;;7.32;3.63;;;;;;;6.95;100.00;100034.56;6103049;29;20055;-91
2023/04/15 09:45:30;;;;;;;7.47;3.33;;;;;;;6.95;100.00;100038.88;6105413;29;20560;-91
2023/04/15 09:48:32;;;;;;;5.93;3.45;;;;;;;6.95;100.00;100044.03;6098783;28;20574;-91
2023/04/15 09:51:35;;;;;;;5.63;3.88;;;;;;;6.98;100.00;100029.22;6121446;28;20505;-91
2023/04/15 09:54:40;;;;;;;5.65;3.83;;;;;;;7.08;100.00;100047.34;6106153;28;20035;-92
2023/04/15 09:57:43;;;;;;;6.57;3.83;;;;;;;7.08;100.00;100044.78;6115809;28;20055;-91
2023/04/15 10:00:48;;;;;;;6.15;3.83;;;;;;;7.05;100.00;100038.09;6121620;28;20040;-89
2023/04/15 10:03:51;;;;;;;6.18;3.92;;;;;;;7.15;100.00;100046.00;6118167;28;20043;-90
2023/04/15 10:06:53;;;;;;;5.63;3.85;;;;;;;7.22;100.00;100051.53;6128347;28;20047;-89
2023/04/15 10:09:55;;;;;;;7.25;4.32;;;;;;;7.23;100.00;100055.72;6112517;28;20457;-89
2023/04/15 10:12:57;;;;;;;7.40;4.40;;;;;;;7.23;100.00;100058.31;6110428;28;20074;-89
2023/04/15 10:16:01;;;;;;;7.05;4.30;;;;;;;7.21;100.00;100050.72;6129399;28;20115;-89
2023/04/15 10:19:05;;;;;;;8.98;5.10;;;;;;;7.26;100.00;100053.78;6124184;28;20036;-89
2023/04/15 10:22:08;;;;;;;10.57;6.13;;;;;;;7.31;100.00;100050.88;6123045;28;20447;-90
2023/04/15 10:25:10;;;;;;;8.48;5.25;;;;;;;7.33;100.00;100054.16;6121864;28;20051;-90
2023/04/15 10:28:14;;;;;;;8.25;5.00;;;;;;;7.36;100.00;100050.53;6118363;28;20040;-92
2023/04/15 10:31:29;;;;;;;7.72;5.60;;;;;;;7.40;100.00;100054.50;6109273;29;20052;-91
2023/04/15 10:34:32;;;;;;;10.63;5.50;;;;;;;7.46;100.00;100060.03;6112707;28;20126;-91
2023/04/15 10:37:36;;;;;;;10.48;6.18;;;;;;;7.51;100.00;100060.50;6106582;29;20048;-93
2023/04/15 10:40:38;;;;;;;10.25;6.05;;;;;;;7.50;100.00;100058.88;6107129;28;20748;-93
2023/04/15 10:43:59;;;;;;;9.88;5.45;;;;;;;7.48;100.00;100065.91;6101736;28;20043;-93
2023/04/15 10:47:17;;;;;;;12.65;6.53;;;;;;;7.52;100.00;100067.28;6105741;28;20043;-94
2023/04/15 10:50:21;;;;;;;10.48;6.47;;;;;;;7.56;100.00;100065.34;6118374;29;20036;-94
2023/04/15 10:53:30;;;;;;;12.13;7.00;;;;;;;7.61;100.00;100057.28;6113905;28;20039;-94
2023/04/15 10:56:33;;;;;;;12.35;6.60;;;;;;;7.64;100.00;100062.19;6100712;29;20047;-95
2023/04/15 10:59:36;;;;;;;15.82;8.43;;;;;;;7.68;100.00;100058.47;6135258;28;20051;-94
2023/04/15 11:02:44;;;;;;;16.98;8.35;;;;;;;7.75;100.00;100064.75;6128547;28;20050;-94
2023/04/15 11:05:53;;;;;;;14.15;7.57;;;;;;;7.79;100.00;100057.66;6119313;28;20417;-94
2023/04/15 11:08:57;;;;;;;16.23;9.05;;;;;;;7.80;100.00;100065.28;6117135;28;20556;-94
2023/04/15 11:12:07;;;;;;;18.27;9.18;;;;;;;7.81;100.00;100060.94;6107561;29;20055;-94
2023/04/15 11:15:36;;;;;;;20.05;9.55;;;;;;;7.89;100.00;100069.72;6126428;28;20126;-93
2023/04/15 11:18:38;;;;;;;19.77;10.65;;;;;;;7.90;100.00;100070.53;6124232;28;20051;-94
2023/04/15 11:21:40;;;;;;;22.42;11.25;;;;;;;7.97;100.00;100069.97;6128657;28;20047;-93
2023/04/15 11:24:51;;;;;;;21.05;10.13;;;;;;;7.97;100.00;100085.44;6135505;28;20406;-93
2023/04/15 11:27:54;;;;;;;20.80;10.60;;;;;;;8.01;100.00;100080.88;6108962;28;20048;-93
2023/04/15 11:30:57;;;;;;;24.92;11.55;;;;;;;8.06;100.00;100077.94;6118540;28;20445;-94
2023/04/15 11:34:01;;;;;;;25.27;12.38;;;;;;;8.16;100.00;100078.88;6112253;28;20059;-95
2023/04/15 11:37:06;;;;;;;23.98;12.32;;;;;;;8.22;100.00;100078.41;6119965;28;20036;-94
2023/04/15 11:40:11;;;;;;;28.67;13.73;;;;;;;8.27;100.00;100086.59;6114411;28;20426;-92
2023/04/15 11:43:21;;;;;;;30.17;13.70;;;;;;;8.37;100.00;100087.56;6132456;28;20052;-92
2023/04/15 11:46:30;;;;;;;29.45;13.75;;;;;;;8.38;100.00;100086.63;6115754;28;20044;-92
2023/04/15 11:49:33;;;;;;;36.70;16.65;;;;;;;8.44;100.00;100085.34;6131702;28;20040;-90
2023/04/15 11:52:35;;;;;;;31.25;15.55;;;;;;;8.51;100.00;100090.88;6114411;28;20562;-91
2023/04/15 11:55:43;;;;;;;33.97;16.65;;;;;;;8.51;100.00;100101.19;6129579;28;20420;-92
2023/04/15 11:58:46;;;;;;;29.13;15.30;;;;;;;8.57;100.00;100100.69;6139545;28;20054;-91
2023/04/15 12:01:48;;;;;;;35.83;16.95;;;;;;;8.64;100.00;100096.69;6123012;28;20043;-90
2023/04/15 12:05:01;;;;;;;34.05;16.60;;;;;;;8.72;100.00;100109.00;6124354;28;20064;-92
2023/04/15 12:08:06;;;;;;;36.30;17.65;;;;;;;8.81;100.00;100103.94;6119302;28;20474;-90
2023/04/15 12:11:08;;;;;;;38.58;19.40;;;;;;;8.91;100.00;100108.41;6110662;28;20608;-90
2023/04/15 12:14:30;;;;;;;40.65;18.95;;;;;;;8.92;100.00;100110.88;6130889;28;20128;-89
2023/04/15 12:17:33;;;;;;;42.83;18.73;;;;;;;8.87;100.00;100118.16;6132049;28;20039;-90
2023/04/15 12:20:53;;;;;;;43.60;19.70;;;;;;;8.88;100.00;100126.72;6123363;28;20036;-90
2023/04/15 12:23:56;;;;;;;40.55;19.90;;;;;;;8.79;100.00;100128.22;6129143;28;20974;-90
2023/04/15 12:27:03;;;;;;;47.42;23.13;;;;;;;8.84;100.00;100133.84;6130397;28;20036;-90
2023/04/15 12:30:06;;;;;;;45.28;21.45;;;;;;;8.82;100.00;100139.16;6116846;28;20055;-90
2023/04/15 12:33:09;;;;;;;48.88;21.70;;;;;;;8.84;100.00;100136.44;6100875;28;20054;-89
2023/04/15 12:36:10;;;;;;;44.45;22.02;;;;;;;8.79;100.00;100147.16;6142553;28;20524;-90
2023/04/15 12:39:12;;;;;;;49.30;23.13;;;;;;;8.75;100.00;100150.88;6121030;28;20043;-91
2023/04/15 12:42:15;;;;;;;53.08;23.85;;;;;;;8.71;100.00;100149.47;6119497;28;20072;-90
2023/04/15 12:45:17;;;;;;;59.08;26.48;;;;;;;8.79;100.00;100161.78;6122670;28;20047;-90
2023/04/15 12:48:19;;;;;;;56.25;23.05;;;;;;;8.83;100.00;100161.44;6107466;28;20043;-89
2023/04/15 12:51:21;;;;;;;55.45;25.02;;;;;;;8.91;100.00;100171.16;6114730;28;20610;-89
2023/04/15 12:54:22;;;;;;;59.25;24.67;;;;;;;8.95;100.00;100167.41;6121007;28;20414;-89
2023/04/15 12:57:24;;;;;;;53.70;24.52;;;;;;;8.98;100.00;100177.50;6113262;28;20134;-89
2023/04/15 13:00:26;;;;;;;64.80;28.10;;;;;;;9.04;100.00;100178.75;6128755;28;20106;-89
2023/04/15 13:03:31;;;;;;;55.42;25.92;;;;;;;9.03;100.00;100174.56;6119548;28;20170;-90
2023/04/15 13:06:33;;;;;;;58.90;26.73;;;;;;;8.97;100.00;100172.47;6123942;28;20117;-89
2023/04/15 13:09:35;;;;;;;62.72;27.67;;;;;;;9.06;100.00;100177.69;6104879;28;20047;-89
2023/04/15 13:12:37;;;;;;;58.40;27.80;;;;;;;9.11;100.00;100186.88;6110249;28;20052;-89
2023/04/15 13:15:39;;;;;;;62.45;28.13;;;;;;;9.14;100.00;100184.03;6103861;28;20516;-89
2023/04/15 13:18:41;;;;;;;57.30;25.77;;;;;;;9.17;100.00;100194.16;6122656;28;20401;-89
2023/04/15 13:21:42;;;;;;;58.63;26.52;;;;;;;9.17;100.00;100197.53;6106702;28;20134;-88
2023/04/15 13:24:45;;;;;;;63.30;28.20;;;;;;;9.17;100.00;100200.13;6121363;28;20064;-88
2023/04/15 13:27:47;;;;;;;58.65;27.63;;;;;;;9.30;100.00;100196.56;6124922;28;20052;-89
2023/04/15 13:30:49;;;;;;;60.40;27.50;;;;;;;9.47;100.00;100196.06;6130550;28;20039;-88
2023/04/15 13:33:51;;;;;;;57.03;26.50;;;;;;;9.58;100.00;100200.34;6120956;28;20485;-88
2023/04/15 13:36:53;;;;;;;50.67;25.77;;;;;;;9.67;100.00;100197.88;6109515;28;20094;-88
2023/04/15 13:39:55;;;;;;;53.17;26.55;;;;;;;9.89;100.00;100198.72;6123772;28;20122;-88
2023/04/15 13:42:57;;;;;;;48.80;25.05;;;;;;;9.97;100.00;100206.66;6122553;28;20498;-89
2023/04/15 13:46:00;;;;;;;48.83;24.85;;;;;;;9.96;100.00;100204.19;6114023;28;20118;-88
2023/04/15 13:49:02;;;;;;;48.22;25.83;;;;;;;10.00;100.00;100206.41;6121033;28;20047;-88
2023/04/15 13:52:04;;;;;;;49.13;25.52;;;;;;;10.11;100.00;100208.94;6116772;28;20043;-88
2023/04/15 13:55:06;;;;;;;53.25;25.10;;;;;;;10.19;100.00;100205.72;6118853;28;20043;-88
2023/04/15 13:58:24;;;;;;;45.63;24.42;;;;;;;10.38;100.00;100202.44;6115917;28;20075;-88
2023/04/15 14:01:26;;;;;;;51.63;25.35;;;;;;;10.66;100.00;100208.75;6129983;28;20047;-88
2023/04/15 14:04:30;;;;;;;43.53;24.15;;;;;;;10.87;100.00;100200.09;6119279;28;20261;-88
2023/04/15 14:07:32;;;;;;;42.72;23.58;;;;;;;11.64;100.00;100202.81;6119599;28;20584;-88